createdAt,value
2018-11-27T00:03:35.521Z,11.92
2018-11-27T00:09:30.450Z,4.32
2018-11-27T00:15:25.438Z,4.71
2018-11-27T00:21:20.455Z,5.92
2018-11-27T00:27:15.552Z,7.17
2018-11-27T00:33:10.451Z,5.38
2018-11-27T00:39:05.479Z,5.35
2018-11-27T00:45:00.506Z,3.58
2018-11-27T00:50:55.483Z,5.51
2018-11-27T00:56:50.467Z,2.81
2018-11-27T01:02:45.482Z,3.29
2018-11-27T01:08:40.470Z,3.12
2018-11-27T01:14:35.507Z,2.73
2018-11-27T01:20:30.494Z,4.47
2018-11-27T01:26:25.529Z,2.3
2018-11-27T01:32:20.522Z,3.82
2018-11-27T01:38:15.518Z,3.27
2018-11-27T01:44:10.495Z,5.96
2018-11-27T01:50:05.504Z,6.86
2018-11-27T01:56:00.542Z,3.37
2018-11-27T02:01:55.506Z,3.14
2018-11-27T02:07:50.531Z,7.04
2018-11-27T02:13:45.525Z,9.94
2018-11-27T02:19:40.514Z,5.29
2018-11-27T02:25:35.537Z,5.14
2018-11-27T02:31:30.523Z,4.54
2018-11-27T02:37:25.545Z,7.79
2018-11-27T02:43:20.540Z,9.03
2018-11-27T02:49:15.546Z,6.21
2018-11-27T02:55:10.536Z,15.15
2018-11-27T03:01:05.530Z,10.7
2018-11-27T03:07:00.538Z,8.92
2018-11-27T03:12:55.544Z,9.89
2018-11-27T03:18:50.548Z,8.97
2018-11-27T03:24:45.584Z,9.17
2018-11-27T03:30:40.550Z,7.58
2018-11-27T03:36:35.578Z,8.07
2018-11-27T03:42:30.552Z,6.89
2018-11-27T03:48:25.586Z,6.63
2018-11-27T03:54:20.570Z,9.08
2018-11-27T04:00:15.597Z,9.06
2018-11-27T04:06:10.571Z,12.81
2018-11-27T04:12:05.572Z,11.95
2018-11-27T04:18:00.596Z,12.41
2018-11-27T04:23:55.587Z,11.83
2018-11-27T04:29:50.567Z,11.55
2018-11-27T04:35:45.602Z,10.78
2018-11-27T04:41:40.645Z,17.98
2018-11-27T04:47:35.579Z,16.9
2018-11-27T04:53:30.602Z,13.02
2018-11-27T04:59:25.608Z,12.91
2018-11-27T05:05:20.583Z,13.07
2018-11-27T05:11:15.628Z,19.3
2018-11-27T05:17:10.634Z,22.15
2018-11-27T05:23:05.627Z,15.15
2018-11-27T05:29:00.653Z,18.26
2018-11-27T05:34:55.629Z,15.03
2018-11-27T05:40:50.618Z,17.15
2018-11-27T05:46:45.658Z,22.65
2018-11-27T05:52:40.636Z,32.39
2018-11-27T05:58:35.651Z,27.7
2018-11-27T06:04:30.672Z,24.18
2018-11-27T06:10:25.670Z,21.78
2018-11-27T06:16:20.658Z,14.08
2018-11-27T06:22:15.702Z,24.93
2018-11-27T06:28:10.659Z,22.09
2018-11-27T06:34:05.685Z,29.99
2018-11-27T06:40:00.691Z,32.02
2018-11-27T06:45:55.699Z,24.39
2018-11-27T06:51:50.675Z,32.36
2018-11-27T06:57:45.694Z,27.69
2018-11-27T07:03:40.670Z,24.65
2018-11-27T07:09:35.689Z,33.48
2018-11-27T07:15:30.666Z,32.74
2018-11-27T07:21:25.687Z,26.53
2018-11-27T07:27:20.679Z,31.3
2018-11-27T07:33:15.689Z,32.67
2018-11-27T07:39:10.765Z,29.23
2018-11-27T07:45:05.692Z,32.95
2018-11-27T07:51:00.747Z,29.18
2018-11-27T07:56:55.705Z,27.49
2018-11-27T08:02:50.703Z,17.96
2018-11-27T08:08:45.717Z,16.2
2018-11-27T08:14:40.693Z,19.97
2018-11-27T08:20:35.705Z,25.9
2018-11-27T08:26:30.721Z,23.26
2018-11-27T08:32:25.699Z,18.55
2018-11-27T08:38:20.768Z,14.14
2018-11-27T08:44:15.712Z,15.37
2018-11-27T08:50:10.727Z,15.93
2018-11-27T08:56:05.704Z,12.29
2018-11-27T09:02:00.713Z,14.77
2018-11-27T09:07:55.725Z,12.29
2018-11-27T09:13:50.728Z,11.05
2018-11-27T09:19:45.739Z,10.88
2018-11-27T09:25:40.794Z,10.87
2018-11-27T09:31:35.740Z,10.92
2018-11-27T09:37:30.795Z,9.01
2018-11-27T09:43:25.753Z,10.71
2018-11-27T09:49:20.786Z,8.73
2018-11-27T09:55:15.770Z,9.18
2018-11-27T10:01:10.758Z,9.71
2018-11-27T10:07:05.756Z,8.3
2018-11-27T10:13:00.756Z,8.86
2018-11-27T10:18:55.807Z,10.36
2018-11-27T10:24:50.758Z,10.28
2018-11-27T10:30:45.767Z,10.86
2018-11-27T10:36:40.781Z,10.69
2018-11-27T10:42:35.794Z,11.02
2018-11-27T10:48:30.803Z,11.66
2018-11-27T10:54:25.816Z,70.97
2018-11-27T11:00:20.796Z,9.23
2018-11-27T11:06:15.799Z,12.63
2018-11-27T11:12:10.816Z,10.71
2018-11-27T11:18:05.832Z,8.44
2018-11-27T11:24:00.820Z,7.32
2018-11-27T11:29:55.798Z,6.04
2018-11-27T11:35:50.810Z,8.31
2018-11-27T11:41:47.986Z,10.07
2018-11-27T11:47:41.923Z,7.41
2018-11-27T11:53:35.804Z,8.11
2018-11-27T11:59:30.838Z,6.65
2018-11-27T12:05:31.771Z,6.1
2018-11-27T12:11:20.862Z,7.42
2018-11-27T12:17:15.841Z,6.08
2018-11-27T12:23:10.882Z,6.41
2018-11-27T12:29:05.820Z,4.64
2018-11-27T12:35:00.918Z,6.08
2018-11-27T12:40:55.854Z,8.59
2018-11-27T12:46:50.842Z,8.47
2018-11-27T12:52:45.842Z,8.17
2018-11-27T12:58:40.849Z,7.16
2018-11-27T13:04:35.910Z,9.65
2018-11-27T13:10:30.865Z,7.96
2018-11-27T13:16:25.859Z,11.73
2018-11-27T13:22:20.933Z,6.34
2018-11-27T13:28:15.867Z,8.13
2018-11-27T13:34:10.873Z,9.9
2018-11-27T13:40:05.872Z,10.84
2018-11-27T13:46:00.965Z,7.33
2018-11-27T13:51:55.908Z,8.19
2018-11-27T13:57:50.917Z,6.81
2018-11-27T14:03:45.914Z,8.61
2018-11-27T14:09:40.946Z,10.64
2018-11-27T14:21:31.439Z,7.27
2018-11-27T14:21:31.447Z,7.27
2018-11-27T14:27:25.909Z,6.98
2018-11-27T14:33:20.935Z,5.26
2018-11-27T14:39:15.935Z,10.1
2018-11-27T14:45:10.907Z,7.13
2018-11-27T14:51:05.996Z,8.24
2018-11-27T14:57:00.978Z,6.06
2018-11-27T15:02:55.929Z,5.69
2018-11-27T15:08:50.938Z,5.8
2018-11-27T15:14:45.988Z,8.36
2018-11-27T15:20:40.912Z,7.27
2018-11-27T15:26:35.952Z,7.09
2018-11-27T15:32:30.969Z,8
2018-11-27T15:38:25.933Z,6.76
2018-11-27T15:44:20.947Z,8.52
2018-11-27T15:50:15.959Z,7.4
2018-11-27T15:56:10.953Z,7.59
2018-11-27T16:02:06.044Z,7.25
2018-11-27T16:08:00.968Z,10.87
2018-11-27T16:13:57.061Z,24.03
2018-11-27T16:19:50.974Z,7.06
2018-11-27T16:25:46.049Z,8.04
2018-11-27T16:31:40.968Z,7.62
2018-11-27T16:37:35.994Z,9.4
2018-11-27T16:43:31.010Z,7.34
2018-11-27T16:49:26.074Z,7.16
2018-11-27T16:55:21.034Z,8.81
2018-11-27T17:01:16.009Z,7.46
2018-11-27T17:07:11.134Z,6.6
2018-11-27T17:13:07.321Z,5.94
2018-11-27T17:19:00.971Z,6.42
2018-11-27T17:24:56.028Z,5.07
2018-11-27T17:30:50.984Z,6.14
2018-11-27T17:36:46.032Z,4.9
2018-11-27T17:42:41.009Z,5.35
2018-11-27T17:48:36.014Z,5.99
2018-11-27T17:54:31.029Z,4.45
2018-11-27T18:00:26.036Z,8.98
2018-11-27T18:06:21.028Z,5.66
2018-11-27T18:12:16.008Z,6.2
2018-11-27T18:18:11.067Z,5.05
2018-11-27T18:24:06.083Z,7.59
2018-11-27T18:30:01.044Z,4.97
2018-11-27T18:35:56.044Z,7.05
2018-11-27T18:41:51.063Z,9.88
2018-11-27T18:47:46.037Z,8.84
2018-11-27T18:53:41.040Z,5.83
2018-11-27T19:05:31.075Z,5.43
2018-11-27T19:11:26.063Z,7.63
2018-11-27T19:17:21.065Z,5.18
2018-11-27T19:23:16.103Z,8.56
2018-11-27T19:29:11.084Z,10.39
2018-11-27T19:35:06.069Z,4.31
2018-11-27T19:41:01.078Z,4.77
2018-11-27T19:46:56.095Z,7.76
2018-11-27T19:52:51.098Z,7.31
2018-11-27T19:58:46.088Z,13.44
2018-11-27T20:04:41.073Z,14.13
2018-11-27T20:10:36.081Z,14.77
2018-11-27T20:16:31.110Z,14.62
2018-11-27T20:22:26.114Z,11.77
2018-11-27T20:28:21.098Z,12.52
2018-11-27T20:34:16.121Z,13.43
2018-11-27T20:40:11.124Z,20.25
2018-11-27T20:46:08.314Z,12.69
2018-11-27T20:52:02.281Z,11.85
2018-11-27T20:57:56.160Z,10.67
2018-11-27T21:03:51.117Z,10.61
2018-11-27T21:09:46.105Z,13.61
2018-11-27T21:15:41.133Z,13.3
2018-11-27T21:21:36.825Z,10.16
2018-11-27T21:27:31.136Z,6.8
2018-11-27T21:33:26.109Z,9.63
2018-11-27T21:39:21.162Z,8.11
2018-11-27T21:45:16.131Z,6.34
2018-11-27T21:51:11.130Z,10.13
2018-11-27T21:57:06.174Z,8.02
2018-11-27T22:03:01.163Z,7.7
2018-11-27T22:08:56.144Z,6.99
2018-11-27T22:14:51.189Z,10.97
2018-11-27T22:20:46.137Z,7.15
2018-11-27T22:26:41.148Z,6.63
2018-11-27T22:32:36.163Z,5.46
2018-11-27T22:38:31.170Z,5.26
2018-11-27T22:44:26.169Z,8.18
2018-11-27T22:50:21.187Z,9.7
2018-11-27T22:56:16.251Z,7.82
2018-11-27T23:02:11.198Z,5.87
2018-11-27T23:08:06.227Z,8.44
2018-11-27T23:14:01.182Z,6.86
2018-11-27T23:19:56.198Z,7.31
2018-11-27T23:25:51.226Z,12.54
2018-11-27T23:31:46.229Z,9.8
2018-11-27T23:37:41.188Z,8.98
2018-11-27T23:43:36.250Z,6.24
2018-11-27T23:49:31.203Z,8.73
2018-11-27T23:55:26.266Z,6.37
